Highland, Indiana
Current Conditions -  °F | °C
As of 7:55 PM on Monday 24 Nov 2014 (Local Time) from KIGQ Reporting Station
Overcast Overcast  
Wind Chill: 14°   Ceiling: 1800
Heat Index: 29°   Visibility: 10mi
Dew Point: 24°   Wind: 24mph
Humidity: 82%   Direction: 260°W
Pressure: 29.74"   Gusts: 35mph
Location:  41.55°N, 87.45°W
Report Text: KIGQ 250155Z AUTO 26021G30KT 10SM OVC018 M02/M05 A2974 RMK AO2 T10191046
Loading
Personal Weather Stations






























Interactive Weather Map New forecast layout! Learn more

10-Day Weather Forecast

Advertisements
Track Severe Weather on mobile